Latest Weather Observations for Moorabbin Airport

IDV60801

Issued at 2:05 pm EST Friday 25 April 2014 (issued every 30 minutes, with the page automatically refreshed every 10 minutes)

About weather observations | Map of weather stations | Latest weather observations for VIC | Other Formats
Station Details ID: 086077 Name: MOORABBIN AIRPORT Lat: -37.98 Lon: 145.10 Height: 12.1 m
Data from the previous 72 hours. | See also: Recent months at Moorabbin Airport
Date/Time
EST
Temp
°C
App
Temp
°C
Dew
Point
Rel
Hum
%
Delta-T
°C
Wind Press
QNH
hPa
Press
MSL
hPa
Rain
since 9 am
mm
Dir
 
Spd
km/h
Gust
km/h
Spd
kts
Gust
kts
25/02:00pm 20.1 16.5 8.4 47 6.1 N 17 28 9 15 1014.3 - 0.0
25/01:30pm 19.1 16.1 7.5 47 5.9 N 13 22 7 12 1014.9 - 0.0
25/01:00pm 18.0 14.4 6.8 48 5.6 NNW 15 24 8 13 1015.8 - 0.0
25/12:30pm 16.8 13.5 6.3 50 5.1 N 13 20 7 11 1016.7 - 0.0
25/12:00pm 14.9 12.8 6.7 58 4.0 S 7 9 4 5 1017.4 1017.3 0.0
25/11:30am 15.8 13.7 6.8 55 4.4 NW 7 11 4 6 1018.0 - 0.0
25/11:00am 14.0 11.6 5.4 56 4.0 N 7 11 4 6 1018.6 - 0.0
25/10:30am 13.2 10.9 5.6 60 3.6 N 7 13 4 7 1019.1 - 0.0
25/10:00am 12.2 10.0 5.1 62 3.3 N 6 11 3 6 1019.5 - 0.0
25/09:30am 11.4 9.3 5.7 68 2.6 NNW 6 7 3 4 1020.3 - 0.0
25/09:00am 9.4 7.1 5.6 77 1.7 NNW 7 9 4 5 1020.6 1020.5 0.0
25/08:30am 8.2 6.0 6.0 86 1.0 N 7 9 4 5 1020.8 - 0.0
25/08:00am 6.7 4.0 5.7 93 0.4 N 9 13 5 7 1020.8 - 0.0
25/07:30am 4.9 3.6 3.9 93 0.4 CALM 0 0 0 0 1020.9 - 0.0
25/07:00am 4.4 1.8 3.4 93 0.4 N 6 7 3 4 1020.8 - 0.0
25/06:30am 4.4 1.6 3.4 93 0.4 NNW 7 9 4 5 1021.0 - 0.0
25/06:00am 5.0 3.7 4.1 94 0.4 CALM 0 0 0 0 1021.0 1020.9 0.0
25/05:30am 5.2 3.9 4.3 94 0.4 CALM 0 0 0 0 1020.7 - 0.0
25/05:00am 5.4 4.1 4.2 92 0.5 CALM 0 0 0 0 1020.6 - 0.0
25/04:30am 5.7 4.5 4.5 92 0.5 CALM 0 0 0 0 1020.6 - 0.0
25/04:00am 5.1 3.7 3.4 89 0.7 CALM 0 0 0 0 1020.6 - 0.0
25/03:30am 5.5 4.1 3.5 87 0.8 CALM 0 0 0 0 1020.8 - 0.0
25/03:00am 6.7 5.5 4.5 86 0.9 CALM 0 0 0 0 1020.9 1020.8 0.0
25/02:30am 7.3 6.2 4.9 85 1.1 CALM 0 0 0 0 1020.9 - 0.0
25/02:00am 7.7 6.5 4.8 82 1.3 CALM 0 0 0 0 1021.0 - 0.0
25/01:30am 8.5 7.4 5.1 79 1.5 CALM 0 0 0 0 1021.2 - 0.0
25/01:00am 9.8 8.8 5.4 74 2.0 CALM 0 0 0 0 1021.3 - 0.0
25/12:30am 10.5 9.6 6.1 74 2.0 CALM 0 0 0 0 1021.5 - 0.0
25/12:00am 10.8 8.6 6.4 74 2.1 N 7 9 4 5 1021.6 1021.5 0.0
 
Date/Time
EST
Temp
°C
App
Temp
°C
Dew
Point
Rel
Hum
%
Delta-T
°C
Wind Press
QNH
hPa
Press
MSL
hPa
Rain
since 9 am
mm
Dir
 
Spd
km/h
Gust
km/h
Spd
kts
Gust
kts
24/11:30pm 10.7 9.9 6.3 74 2.1 CALM 0 0 0 0 1021.7 - 0.0
24/11:00pm 9.9 8.8 5.3 73 2.1 CALM 0 0 0 0 1021.7 - 0.0
24/10:30pm 10.3 8.9 5.3 71 2.3 E 2 6 1 3 1021.8 - 0.0
24/10:00pm 10.6 8.2 5.4 70 2.4 E 7 9 4 5 1021.8 - 0.0
24/09:30pm 10.4 8.0 5.2 70 2.4 SE 7 7 4 4 1021.6 - 0.0
24/09:00pm 10.5 8.1 5.3 70 2.4 ESE 7 9 4 5 1021.5 1021.4 0.0
24/08:30pm 10.5 7.7 5.3 70 2.4 SE 9 11 5 6 1021.2 - 0.0
24/08:00pm 10.9 7.8 5.4 69 2.5 SE 11 17 6 9 1020.9 - 0.0
24/07:30pm 11.6 8.5 5.7 67 2.7 SE 11 13 6 7 1020.7 - 0.0
24/07:00pm 12.5 9.9 5.9 64 3.1 SE 9 13 5 7 1020.3 - 0.0
24/06:30pm 13.1 9.7 5.8 61 3.4 SSE 13 17 7 9 1020.0 - 0.0
24/06:00pm 13.7 9.5 5.8 59 3.7 S 17 24 9 13 1019.5 1019.4 0.0
24/05:30pm 13.8 10.3 7.1 64 3.3 S 15 26 8 14 1019.0 - 0.0
24/05:00pm 14.1 9.6 6.2 59 3.8 SSW 19 28 10 15 1018.7 - 0.0
24/04:30pm 14.6 9.2 6.2 57 4.0 SSW 24 30 13 16 1018.5 - 0.0
24/04:00pm 15.2 10.7 6.0 54 4.4 SSW 19 28 10 15 1018.3 - 0.0
24/03:30pm 15.4 10.7 6.1 54 4.5 SSW 20 28 11 15 1018.0 - 0.0
24/03:00pm 15.5 9.7 6.2 54 4.5 SSW 26 35 14 19 1017.8 1017.7 0.0
24/02:30pm 16.3 11.4 5.3 48 5.3 SSW 20 28 11 15 1017.6 - 0.0
24/02:00pm 15.8 10.5 5.1 49 5.1 SSW 22 30 12 16 1017.5 - 0.0
24/01:30pm 16.3 10.7 5.3 48 5.3 SW 24 32 13 17 1017.5 - 0.0
24/01:00pm 16.0 10.1 5.9 51 4.9 SSW 26 35 14 19 1017.5 - 0.0
24/12:30pm 16.2 9.7 4.6 46 5.5 SW 28 39 15 21 1017.5 - 0.0
24/12:00pm 15.5 8.6 4.5 48 5.1 SW 30 43 16 23 1017.4 1017.3 0.0
24/11:30am 15.2 8.7 4.9 50 4.8 SW 28 41 15 22 1017.3 - 0.0
24/11:00am 15.1 8.7 6.9 58 4.0 SW 30 43 16 23 1016.9 - 0.0
24/10:30am 15.4 11.3 8.6 64 3.5 WSW 20 33 11 18 1016.3 - 0.0
24/10:00am 15.2 11.8 10.4 73 2.5 WSW 19 30 10 16 1015.9 - 0.0
24/09:30am 15.3 12.4 11.1 76 2.2 W 17 26 9 14 1015.4 - 0.0
24/09:00am 14.6 10.8 11.2 80 1.8 W 22 33 12 18 1014.8 1014.7 0.2
24/08:30am 14.5 10.0 11.3 81 1.7 W 26 37 14 20 1014.1 - 0.2
24/08:00am 14.9 9.6 9.9 72 2.6 WNW 28 39 15 21 1013.1 - 0.0
24/07:30am 14.8 10.5 6.9 59 3.9 NNW 19 28 10 15 1012.1 - 0.0
24/07:00am 14.2 9.5 5.3 55 4.2 NNW 19 26 10 14 1011.5 - 0.0
24/06:30am 14.4 9.7 5.0 53 4.4 NNW 19 26 10 14 1011.3 - 0.0
24/06:00am 13.7 8.9 4.6 54 4.2 NNW 19 26 10 14 1011.1 1011.0 0.0
24/05:30am 14.0 8.6 4.6 53 4.3 NNW 22 30 12 16 1010.9 - 0.0
24/05:00am 14.2 8.9 4.8 53 4.4 N 22 33 12 18 1010.3 - 0.0
24/04:30am 13.5 8.6 4.9 56 4.0 N 20 28 11 15 1010.0 - 0.0
24/04:00am 13.4 8.7 5.1 57 3.9 N 19 24 10 13 1010.2 - 0.0
24/03:30am 13.6 8.9 5.3 57 3.9 N 19 26 10 14 1010.2 - 0.0
24/03:00am 13.5 8.9 5.4 58 3.8 N 19 26 10 14 1010.3 1010.2 0.0
24/02:30am 13.8 9.0 5.4 57 3.9 N 20 28 11 15 1010.6 - 0.0
24/02:00am 14.3 9.5 5.7 56 4.1 N 20 28 11 15 1010.9 - 0.0
24/01:30am 13.9 8.8 5.8 58 3.8 N 22 28 12 15 1011.0 - 0.0
24/01:00am 13.6 9.4 5.7 59 3.7 N 17 22 9 12 1011.4 - 0.0
24/12:30am 13.4 9.2 5.8 60 3.6 N 17 20 9 11 1011.7 - 0.0
24/12:00am 13.4 8.8 5.6 59 3.7 N 19 22 10 12 1011.9 1011.8 0.0
 
Date/Time
EST
Temp
°C
App
Temp
°C
Dew
Point
Rel
Hum
%
Delta-T
°C
Wind Press
QNH
hPa
Press
MSL
hPa
Rain
since 9 am
mm
Dir
 
Spd
km/h
Gust
km/h
Spd
kts
Gust
kts
23/11:30pm 13.3 9.2 6.2 62 3.4 N 17 20 9 11 1012.2 - 0.0
23/11:00pm 13.5 9.5 6.6 63 3.3 N 17 20 9 11 1012.5 - 0.0
23/10:30pm 13.0 9.9 7.2 68 2.8 N 13 15 7 8 1012.8 - 0.0
23/10:00pm 13.8 11.4 8.6 71 2.6 N 11 13 6 7 1013.2 - 0.0
23/09:30pm 13.5 11.6 10.5 82 1.6 N 11 15 6 8 1013.2 - 0.0
23/09:00pm 12.1 11.0 10.8 92 0.7 N 7 9 4 5 1013.2 1013.1 0.0
23/08:30pm 12.1 12.2 10.2 88 1.0 CALM 0 0 0 0 1013.2 - 0.0
23/08:00pm 12.4 11.3 10.1 86 1.2 SW 6 6 3 3 1013.3 - 0.0
23/07:30pm 12.8 12.9 10.2 84 1.3 CALM 0 0 0 0 1013.4 - 0.0
23/07:00pm 13.3 13.5 10.5 83 1.5 CALM 0 0 0 0 1013.2 - 0.0
23/06:30pm 13.0 12.9 9.6 80 1.7 CALM 0 0 0 0 1013.1 - 0.0
23/06:00pm 14.1 13.0 9.9 76 2.2 SE 6 7 3 4 1013.1 1013.0 0.0
23/05:30pm 15.0 14.0 10.2 73 2.5 S 6 9 3 5 1013.4 - 0.0
23/05:00pm 16.0 14.3 9.9 67 3.2 SSW 9 11 5 6 1013.4 - 0.0
23/04:30pm 16.8 15.2 10.2 65 3.5 SSW 9 9 5 5 1013.4 - 0.0
23/04:00pm 17.1 16.0 10.0 63 3.7 SSW 6 7 3 4 1013.5 - 0.0
23/03:30pm 17.2 15.9 9.9 62 3.8 WSW 7 9 4 5 1013.5 - 0.0
23/03:00pm 17.1 15.9 10.2 64 3.7 SW 7 13 4 7 1013.7 1013.6 0.0
23/02:30pm 16.6 15.5 10.5 67 3.2 SSW 7 9 4 5 1013.9 - 0.0
23/02:00pm 16.6 14.6 10.2 66 3.4 SW 11 15 6 8 1014.1 - 0.0
23/01:30pm 16.4 14.4 10.3 67 3.2 WSW 11 17 6 9 1014.6 - 0.0
23/01:00pm 16.3 14.0 10.4 68 3.1 WSW 13 17 7 9 1015.1 - 0.0
23/12:30pm 16.5 14.7 10.8 69 3.0 W 11 17 6 9 1015.6 - 0.0
23/12:00pm 15.8 13.2 10.8 72 2.7 SW 15 20 8 11 1016.1 1016.0 0.0
23/11:30am 16.1 14.6 11.9 76 2.3 SW 11 17 6 9 1016.3 - 0.0
23/11:00am 15.2 13.9 11.2 77 2.1 SW 9 13 5 7 1016.4 - 0.0
23/10:30am 14.8 12.8 11.4 80 1.8 W 13 20 7 11 1016.8 - 0.0
23/10:00am 14.3 11.4 10.9 80 1.8 WSW 17 20 9 11 1017.0 - 0.0
23/09:54am 14.4 11.9 11.2 81 1.7 WSW 15 20 8 11 1017.1 - 0.0
23/09:30am 14.5 12.6 11.8 84 1.5 W 13 17 7 9 1017.1 - 0.0
23/09:12am 14.5 12.7 12.2 86 1.2 W 13 19 7 10 1017.1 - 0.0
23/09:00am 14.8 13.8 13.3 91 0.8 W 11 17 6 9 1017.0 1016.9 3.6
23/08:30am 13.5 13.2 13.3 99 0.1 WNW 7 11 4 6 1016.7 - 3.6
23/08:00am 12.5 11.9 12.3 99 0.1 WNW 7 11 4 6 1016.7 - 3.6
23/07:30am 11.9 10.7 11.7 99 0.1 NW 9 11 5 6 1016.4 - 3.6
23/07:24am 11.5 10.6 11.3 99 0.1 WNW 7 11 4 6 1016.5 - 3.6
23/07:03am 9.5 8.1 9.4 99 0.0 NW 7 7 4 4 1016.2 - 3.6
23/07:00am 9.8 8.4 9.7 99 0.1 NW 7 9 4 5 1016.2 - 3.6
23/06:53am 10.6 9.4 10.4 99 0.1 NW 7 9 4 5 1016.2 - 3.6
23/06:30am 10.7 10.5 10.5 99 0.1 NW 2 7 1 4 1016.3 - 3.6
23/06:22am 10.6 10.8 10.4 99 0.1 CALM 0 6 0 3 1016.4 - 3.6
23/06:00am 11.1 10.3 10.9 99 0.1 N 6 7 3 4 1016.5 1016.4 3.6
23/05:50am 10.9 10.0 10.7 99 0.1 N 6 7 3 4 1016.4 - 3.6
23/05:30am 10.5 9.5 10.3 99 0.1 N 6 7 3 4 1016.2 - 3.6
23/05:19am 11.0 10.9 10.8 99 0.1 NW 2 6 1 3 1016.1 - 3.6
23/05:00am 11.5 10.8 11.3 99 0.1 NW 6 7 3 4 1016.2 - 3.6
23/04:37am 11.7 10.8 11.5 99 0.1 N 7 9 4 5 1016.2 - 3.6
23/04:30am 11.6 11.3 11.3 98 0.2 NE 4 9 2 5 1016.1 - 3.6
23/04:00am 11.3 11.6 10.8 97 0.3 CALM 0 0 0 0 1016.1 - 3.6
23/03:30am 12.1 12.6 11.5 96 0.3 CALM 0 0 0 0 1016.1 - 3.6
23/03:26am 12.0 12.4 11.4 96 0.3 CALM 0 0 0 0 1016.2 - 3.6
23/03:00am 12.6 13.2 11.8 95 0.4 CALM 0 0 0 0 1016.3 1016.2 3.6
23/02:30am 13.0 13.7 12.1 94 0.5 CALM 0 0 0 0 1016.5 - 3.6
23/02:00am 13.3 14.0 12.2 93 0.6 CALM 0 0 0 0 1016.8 - 3.6
23/01:30am 13.2 13.8 11.8 91 0.7 CALM 0 0 0 0 1017.1 - 3.6
23/01:00am 13.3 13.8 11.7 90 0.9 CALM 0 0 0 0 1017.1 - 3.6
23/12:30am 13.5 13.8 12.1 91 0.8 E 2 6 1 3 1017.3 - 3.6
23/12:00am 13.7 13.2 11.9 89 1.0 E 6 7 3 4 1017.4 1017.3 3.6
 
Date/Time
EST
Temp
°C
App
Temp
°C
Dew
Point
Rel
Hum
%
Delta-T
°C
Wind Press
QNH
hPa
Press
MSL
hPa
Rain
since 9 am
mm
Dir
 
Spd
km/h
Gust
km/h
Spd
kts
Gust
kts
22/11:30pm 13.8 13.0 11.1 84 1.4 SE 6 7 3 4 1017.5 - 3.6
22/11:00pm 14.2 13.3 11.4 83 1.5 SSE 7 11 4 6 1017.8 - 3.6
22/10:30pm 14.2 13.3 11.5 84 1.4 S 7 9 4 5 1018.1 - 3.6
22/10:00pm 14.4 13.7 11.9 85 1.3 S 7 9 4 5 1018.0 - 3.6
22/09:30pm 14.4 13.3 12.1 86 1.2 SE 9 9 5 5 1017.9 - 3.6
22/09:00pm 14.6 14.3 13.3 92 0.7 SSE 7 11 4 6 1017.5 1017.4 3.6
22/08:30pm 14.7 14.7 13.7 94 0.6 SSE 6 6 3 3 1017.4 - 3.6
22/08:00pm 14.8 14.7 13.8 94 0.6 SSE 7 9 4 5 1017.3 - 3.6
22/07:30pm 14.8 14.7 14.0 95 0.5 SE 7 11 4 6 1017.1 - 3.6
22/07:00pm 15.1 15.1 14.3 95 0.5 SE 7 11 4 6 1016.8 - 3.6
22/06:30pm 15.0 16.2 13.9 93 0.6 CALM 0 6 0 3 1016.4 - 3.6
22/06:00pm 14.9 15.1 14.3 96 0.3 W 6 9 3 5 1016.1 1016.0 3.6
22/05:55pm 14.9 15.2 14.4 97 0.3 WNW 6 9 3 5 1016.1 - 3.6
22/05:30pm 14.8 14.5 14.3 97 0.3 N 9 11 5 6 1015.8 - 3.6
22/05:00pm 14.8 14.4 14.0 95 0.5 N 9 13 5 7 1015.4 - 3.6
22/04:30pm 14.9 14.4 13.9 94 0.6 NNW 9 15 5 8 1015.2 - 3.4
22/04:26pm 14.9 14.8 13.8 93 0.6 NNW 7 15 4 8 1015.2 - 3.4
22/04:03pm 15.2 14.5 13.2 88 1.1 WNW 9 13 5 7 1015.2 - 3.4
22/04:00pm 15.3 14.6 13.1 87 1.2 NW 9 13 5 7 1015.2 - 3.2
22/03:57pm 15.3 14.6 13.1 87 1.2 NW 9 13 5 7 1015.1 - 3.0
22/03:30pm 15.9 15.6 12.8 82 1.7 W 6 9 3 5 1015.0 - 3.0
22/03:00pm 16.1 15.6 12.5 79 2.0 NNW 7 11 4 6 1014.6 1014.5 2.8
22/02:30pm 16.1 14.8 12.5 79 2.0 N 11 13 6 7 1014.3 - 2.8

Other Formats:

Comma delimited format used in spreadsheet applications
http://www.bom.gov.au/fwo/IDV60801/IDV60801.94870.axf

JavaScript Object Notation format (JSON) in row-major order
http://www.bom.gov.au/fwo/IDV60801/IDV60801.94870.json